sensor_id;sensor_type;location;lat;lon;timestamp;pressure;altitude;pressure_sealevel;temperature;humidity
37132;BME280;23035;50.032;21.978;2023-06-26T00:03:46;67208.91;;;19.34;100.00
37132;BME280;23035;50.032;21.978;2023-06-26T00:08:51;67178.75;;;19.08;100.00
37132;BME280;23035;50.032;21.978;2023-06-26T00:13:55;67325.56;;;20.44;100.00
37132;BME280;23035;50.032;21.978;2023-06-26T00:19:00;67347.63;;;20.59;100.00
37132;BME280;23035;50.032;21.978;2023-06-26T00:24:04;67297.34;;;20.12;100.00
37132;BME280;23035;50.032;21.978;2023-06-26T00:29:09;67271.69;;;19.98;100.00
37132;BME280;23035;50.032;21.978;2023-06-26T00:34:15;67239.09;;;19.60;100.00
37132;BME280;23035;50.032;21.978;2023-06-26T00:39:21;67108.03;;;18.41;100.00
37132;BME280;23035;50.032;21.978;2023-06-26T00:44:28;67112.28;;;18.43;100.00
37132;BME280;23035;50.032;21.978;2023-06-26T00:49:33;67120.38;;;18.50;100.00
37132;BME280;23035;50.032;21.978;2023-06-26T00:54:37;67155.41;;;18.81;100.00
37132;BME280;23035;50.032;21.978;2023-06-26T00:59:41;67069.06;;;17.99;100.00
37132;BME280;23035;50.032;21.978;2023-06-26T01:04:48;67161.25;;;18.84;100.00
37132;BME280;23035;50.032;21.978;2023-06-26T01:09:54;67218.00;;;19.40;100.00
37132;BME280;23035;50.032;21.978;2023-06-26T01:14:59;67022.06;;;17.53;100.00
37132;BME280;23035;50.032;21.978;2023-06-26T01:20:06;67060.50;;;17.94;100.00
37132;BME280;23035;50.032;21.978;2023-06-26T01:25:16;67090.16;;;18.22;100.00
37132;BME280;23035;50.032;21.978;2023-06-26T01:30:24;67083.63;;;18.13;100.00
37132;BME280;23035;50.032;21.978;2023-06-26T01:35:29;66934.41;;;16.77;100.00
37132;BME280;23035;50.032;21.978;2023-06-26T01:40:33;66909.47;;;16.49;100.00
37132;BME280;23035;50.032;21.978;2023-06-26T01:45:39;66950.50;;;16.90;100.00
37132;BME280;23035;50.032;21.978;2023-06-26T01:50:44;66859.44;;;16.04;100.00
37132;BME280;23035;50.032;21.978;2023-06-26T01:55:53;66895.47;;;16.35;100.00
37132;BME280;23035;50.032;21.978;2023-06-26T02:00:59;66855.06;;;15.97;100.00
37132;BME280;23035;50.032;21.978;2023-06-26T02:06:04;66801.81;;;15.49;100.00
37132;BME280;23035;50.032;21.978;2023-06-26T02:11:08;66861.44;;;16.01;100.00
37132;BME280;23035;50.032;21.978;2023-06-26T02:16:16;66860.38;;;16.00;100.00
37132;BME280;23035;50.032;21.978;2023-06-26T02:21:20;66836.81;;;15.83;100.00
37132;BME280;23035;50.032;21.978;2023-06-26T02:26:24;66873.38;;;16.15;100.00
37132;BME280;23035;50.032;21.978;2023-06-26T02:31:29;66933.19;;;16.71;100.00
37132;BME280;23035;50.032;21.978;2023-06-26T02:36:33;66961.81;;;17.01;100.00
37132;BME280;23035;50.032;21.978;2023-06-26T02:41:42;67053.41;;;17.85;100.00
37132;BME280;23035;50.032;21.978;2023-06-26T02:46:50;67054.44;;;17.83;100.00
37132;BME280;23035;50.032;21.978;2023-06-26T02:51:54;67128.47;;;18.58;100.00
37132;BME280;23035;50.032;21.978;2023-06-26T02:57:02;67075.59;;;18.08;100.00
37132;BME280;23035;50.032;21.978;2023-06-26T03:02:11;67081.47;;;18.11;100.00
37132;BME280;23035;50.032;21.978;2023-06-26T03:07:20;67119.38;;;18.52;100.00
37132;BME280;23035;50.032;21.978;2023-06-26T03:12:28;67193.66;;;19.14;100.00
37132;BME280;23035;50.032;21.978;2023-06-26T03:17:34;67173.28;;;19.00;100.00
37132;BME280;23035;50.032;21.978;2023-06-26T03:22:42;67169.97;;;18.95;100.00
37132;BME280;23035;50.032;21.978;2023-06-26T03:27:51;67187.84;;;19.14;100.00
37132;BME280;23035;50.032;21.978;2023-06-26T03:32:57;67225.63;;;19.49;100.00
37132;BME280;23035;50.032;21.978;2023-06-26T03:38:03;67230.84;;;19.47;100.00
37132;BME280;23035;50.032;21.978;2023-06-26T03:43:08;67185.53;;;19.07;100.00
37132;BME280;23035;50.032;21.978;2023-06-26T03:48:35;67195.34;;;19.18;100.00
37132;BME280;23035;50.032;21.978;2023-06-26T03:53:41;67237.00;;;19.60;100.00
37132;BME280;23035;50.032;21.978;2023-06-26T03:58:46;67258.59;;;19.81;100.00
37132;BME280;23035;50.032;21.978;2023-06-26T04:03:52;67276.88;;;19.95;100.00
37132;BME280;23035;50.032;21.978;2023-06-26T04:08:59;67248.34;;;19.71;100.00
37132;BME280;23035;50.032;21.978;2023-06-26T04:14:05;67339.03;;;20.54;100.00
37132;BME280;23035;50.032;21.978;2023-06-26T04:19:11;67302.88;;;20.22;100.00
37132;BME280;23035;50.032;21.978;2023-06-26T04:24:17;67358.47;;;20.72;100.00
37132;BME280;23035;50.032;21.978;2023-06-26T04:29:21;67329.38;;;20.47;100.00
37132;BME280;23035;50.032;21.978;2023-06-26T04:34:30;67275.25;;;19.94;100.00
37132;BME280;23035;50.032;21.978;2023-06-26T04:39:38;67249.94;;;19.72;100.00
37132;BME280;23035;50.032;21.978;2023-06-26T04:44:43;67073.97;;;18.06;100.00
37132;BME280;23035;50.032;21.978;2023-06-26T04:49:48;67172.19;;;18.99;100.00
37132;BME280;23035;50.032;21.978;2023-06-26T04:54:54;67076.13;;;18.09;100.00
37132;BME280;23035;50.032;21.978;2023-06-26T04:59:58;67178.66;;;19.05;100.00
37132;BME280;23035;50.032;21.978;2023-06-26T05:05:05;67404.47;;;21.18;100.00
37132;BME280;23035;50.032;21.978;2023-06-26T05:10:11;67270.47;;;19.92;100.00
37132;BME280;23035;50.032;21.978;2023-06-26T05:15:16;67158.09;;;18.83;100.00
37132;BME280;23035;50.032;21.978;2023-06-26T05:20:22;67135.56;;;18.67;100.00
37132;BME280;23035;50.032;21.978;2023-06-26T05:25:29;67295.88;;;20.16;100.00
37132;BME280;23035;50.032;21.978;2023-06-26T05:30:34;67233.22;;;19.57;100.00
37132;BME280;23035;50.032;21.978;2023-06-26T05:35:42;67147.84;;;18.74;100.00
37132;BME280;23035;50.032;21.978;2023-06-26T05:40:50;67155.34;;;18.78;100.00
37132;BME280;23035;50.032;21.978;2023-06-26T05:45:55;67296.28;;;20.11;100.00
37132;BME280;23035;50.032;21.978;2023-06-26T05:51:05;67391.50;;;21.06;100.00
37132;BME280;23035;50.032;21.978;2023-06-26T05:56:11;67301.19;;;20.18;100.00
37132;BME280;23035;50.032;21.978;2023-06-26T06:01:15;67362.81;;;20.76;100.00
37132;BME280;23035;50.032;21.978;2023-06-26T06:06:21;67336.88;;;20.52;100.00
37132;BME280;23035;50.032;21.978;2023-06-26T06:11:26;67509.97;;;22.17;99.15
37132;BME280;23035;50.032;21.978;2023-06-26T06:16:30;67467.88;;;21.83;97.71
37132;BME280;23035;50.032;21.978;2023-06-26T06:21:36;67460.13;;;21.68;100.00
37132;BME280;23035;50.032;21.978;2023-06-26T06:26:40;67434.25;;;21.46;98.33
37132;BME280;23035;50.032;21.978;2023-06-26T06:31:44;67534.84;;;22.41;87.29
37132;BME280;23035;50.032;21.978;2023-06-26T06:36:50;67597.69;;;23.02;87.68
37132;BME280;23035;50.032;21.978;2023-06-26T06:41:54;67603.53;;;23.03;88.04
37132;BME280;23035;50.032;21.978;2023-06-26T06:46:59;67632.19;;;23.30;84.08
37132;BME280;23035;50.032;21.978;2023-06-26T06:52:05;67491.50;;;21.97;92.27
37132;BME280;23035;50.032;21.978;2023-06-26T06:57:11;67628.41;;;23.26;88.48
37132;BME280;23035;50.032;21.978;2023-06-26T07:02:16;67687.44;;;23.82;80.67
37132;BME280;23035;50.032;21.978;2023-06-26T07:07:23;67688.47;;;23.80;80.64
37132;BME280;23035;50.032;21.978;2023-06-26T07:12:27;67629.06;;;23.32;86.22
37132;BME280;23035;50.032;21.978;2023-06-26T07:17:31;67518.06;;;22.25;91.50
37132;BME280;23035;50.032;21.978;2023-06-26T07:22:39;67593.25;;;22.93;87.72
37132;BME280;23035;50.032;21.978;2023-06-26T07:27:43;67734.13;;;24.30;77.88
37132;BME280;23035;50.032;21.978;2023-06-26T07:32:47;67615.53;;;23.19;84.33
37132;BME280;23035;50.032;21.978;2023-06-26T07:37:53;67549.44;;;22.54;88.23
37132;BME280;23035;50.032;21.978;2023-06-26T07:42:57;67648.00;;;23.50;85.63
37132;BME280;23035;50.032;21.978;2023-06-26T07:48:02;67684.25;;;23.81;79.91
37132;BME280;23035;50.032;21.978;2023-06-26T07:53:07;67653.88;;;23.50;83.90
37132;BME280;23035;50.032;21.978;2023-06-26T07:58:12;67662.50;;;23.58;82.35
37132;BME280;23035;50.032;21.978;2023-06-26T08:03:16;67719.94;;;24.12;78.11
37132;BME280;23035;50.032;21.978;2023-06-26T08:08:38;67670.72;;;23.68;84.45
37132;BME280;23035;50.032;21.978;2023-06-26T08:13:42;67626.75;;;23.22;88.20
37132;BME280;23035;50.032;21.978;2023-06-26T08:18:49;67739.44;;;24.30;79.88
37132;BME280;23035;50.032;21.978;2023-06-26T08:23:55;67691.91;;;23.91;83.26
37132;BME280;23035;50.032;21.978;2023-06-26T08:29:00;67741.13;;;24.35;80.55
37132;BME280;23035;50.032;21.978;2023-06-26T08:34:14;67730.28;;;24.24;82.75
37132;BME280;23035;50.032;21.978;2023-06-26T08:39:19;67718.31;;;24.11;78.45
37132;BME280;23035;50.032;21.978;2023-06-26T08:44:23;67750.38;;;24.46;76.60
37132;BME280;23035;50.032;21.978;2023-06-26T08:49:34;67630.69;;;23.33;81.80
37132;BME280;23035;50.032;21.978;2023-06-26T08:54:51;67728.13;;;24.22;75.94
37132;BME280;23035;50.032;21.978;2023-06-26T08:59:57;67671.78;;;23.69;77.94
37132;BME280;23035;50.032;21.978;2023-06-26T09:05:01;67745.53;;;24.41;76.24
37132;BME280;23035;50.032;21.978;2023-06-26T09:10:08;67825.66;;;25.14;62.65
37132;BME280;23035;50.032;21.978;2023-06-26T09:15:14;67826.22;;;25.14;66.70
37132;BME280;23035;50.032;21.978;2023-06-26T09:20:19;67801.31;;;24.94;68.22
37132;BME280;23035;50.032;21.978;2023-06-26T09:25:25;67730.81;;;24.25;66.37
37132;BME280;23035;50.032;21.978;2023-06-26T09:30:31;67823.97;;;25.07;67.04
37132;BME280;23035;50.032;21.978;2023-06-26T09:35:36;68004.13;;;26.84;54.85
37132;BME280;23035;50.032;21.978;2023-06-26T09:40:42;67838.56;;;25.21;57.89
37132;BME280;23035;50.032;21.978;2023-06-26T09:45:47;67841.44;;;25.31;55.94
37132;BME280;23035;50.032;21.978;2023-06-26T09:50:53;67835.97;;;25.24;56.16
37132;BME280;23035;50.032;21.978;2023-06-26T09:56:17;67860.84;;;25.44;54.89
37132;BME280;23035;50.032;21.978;2023-06-26T10:01:21;67854.94;;;25.41;50.49
37132;BME280;23035;50.032;21.978;2023-06-26T10:06:28;67880.94;;;25.66;51.07
37132;BME280;23035;50.032;21.978;2023-06-26T10:11:43;67822.91;;;25.09;53.89
37132;BME280;23035;50.032;21.978;2023-06-26T10:16:49;67826.22;;;25.14;56.32
37132;BME280;23035;50.032;21.978;2023-06-26T10:21:55;67860.34;;;25.46;56.98
37132;BME280;23035;50.032;21.978;2023-06-26T10:27:02;67885.38;;;25.72;53.33
37132;BME280;23035;50.032;21.978;2023-06-26T10:32:10;67862.47;;;25.46;47.02
37132;BME280;23035;50.032;21.978;2023-06-26T10:37:16;67927.66;;;26.12;49.58
37132;BME280;23035;50.032;21.978;2023-06-26T10:42:35;67901.03;;;25.85;54.67
37132;BME280;23035;50.032;21.978;2023-06-26T10:47:40;67944.44;;;26.25;52.04
37132;BME280;23035;50.032;21.978;2023-06-26T10:52:45;67843.03;;;25.30;53.54
37132;BME280;23035;50.032;21.978;2023-06-26T10:57:50;67902.56;;;25.81;49.98
37132;BME280;23035;50.032;21.978;2023-06-26T11:02:56;67903.75;;;25.87;49.13
37132;BME280;23035;50.032;21.978;2023-06-26T11:08:06;67879.88;;;25.65;48.57
37132;BME280;23035;50.032;21.978;2023-06-26T11:13:12;67857.66;;;25.44;47.91
37132;BME280;23035;50.032;21.978;2023-06-26T11:18:17;67929.19;;;26.09;46.97
37132;BME280;23035;50.032;21.978;2023-06-26T11:23:23;68042.16;;;27.20;44.95
37132;BME280;23035;50.032;21.978;2023-06-26T11:28:31;68112.72;;;27.86;42.59
37132;BME280;23035;50.032;21.978;2023-06-26T11:33:35;68126.22;;;27.93;40.99
37132;BME280;23035;50.032;21.978;2023-06-26T11:38:40;68339.22;;;29.95;39.07
37132;BME280;23035;50.032;21.978;2023-06-26T11:43:46;68353.97;;;30.12;37.22
37132;BME280;23035;50.032;21.978;2023-06-26T11:48:53;68333.31;;;29.92;38.68
37132;BME280;23035;50.032;21.978;2023-06-26T11:54:00;68427.41;;;30.83;36.12
37132;BME280;23035;50.032;21.978;2023-06-26T11:59:09;68348.53;;;30.07;37.23
37132;BME280;23035;50.032;21.978;2023-06-26T12:04:16;68289.22;;;29.49;38.08
37132;BME280;23035;50.032;21.978;2023-06-26T12:09:23;68189.88;;;28.61;37.86
37132;BME280;23035;50.032;21.978;2023-06-26T12:14:29;68185.44;;;28.51;38.25
37132;BME280;23035;50.032;21.978;2023-06-26T12:19:37;68228.91;;;28.92;38.32
37132;BME280;23035;50.032;21.978;2023-06-26T12:24:43;68296.84;;;29.56;37.50
37132;BME280;23035;50.032;21.978;2023-06-26T12:29:51;68174.56;;;28.41;39.25
37132;BME280;23035;50.032;21.978;2023-06-26T12:34:57;67949.28;;;26.30;44.84
37132;BME280;23035;50.032;21.978;2023-06-26T12:40:01;67969.94;;;26.49;46.20
37132;BME280;23035;50.032;21.978;2023-06-26T12:45:13;68086.06;;;27.58;43.75
37132;BME280;23035;50.032;21.978;2023-06-26T12:50:37;68042.16;;;27.20;43.06
37132;BME280;23035;50.032;21.978;2023-06-26T12:55:42;68137.66;;;28.07;41.30
37132;BME280;23035;50.032;21.978;2023-06-26T13:00:47;68198.53;;;28.66;41.25
37132;BME280;23035;50.032;21.978;2023-06-26T13:05:52;68243.03;;;29.05;39.52
37132;BME280;23035;50.032;21.978;2023-06-26T13:10:56;68121.41;;;27.94;42.17
37132;BME280;23035;50.032;21.978;2023-06-26T13:16:01;68395.75;;;30.46;37.75
37132;BME280;23035;50.032;21.978;2023-06-26T13:21:06;68521.94;;;31.61;37.14
37132;BME280;23035;50.032;21.978;2023-06-26T13:26:10;68427.91;;;30.78;37.03
37132;BME280;23035;50.032;21.978;2023-06-26T13:31:36;68396.94;;;30.54;38.65
37132;BME280;23035;50.032;21.978;2023-06-26T13:36:41;68366.94;;;30.19;38.85
37132;BME280;23035;50.032;21.978;2023-06-26T13:41:49;68467.09;;;31.18;37.16
37132;BME280;23035;50.032;21.978;2023-06-26T13:47:05;68315.31;;;29.73;36.80
37132;BME280;23035;50.032;21.978;2023-06-26T13:52:13;68328.94;;;29.88;36.96
37132;BME280;23035;50.032;21.978;2023-06-26T13:57:17;68306.09;;;29.64;38.42
37132;BME280;23035;50.032;21.978;2023-06-26T14:02:23;68379.00;;;30.38;37.74
37132;BME280;23035;50.032;21.978;2023-06-26T14:07:29;68301.16;;;29.57;37.58
37132;BME280;23035;50.032;21.978;2023-06-26T14:12:34;68339.75;;;29.93;37.08
37132;BME280;23035;50.032;21.978;2023-06-26T14:17:40;68354.50;;;30.12;37.44
37132;BME280;23035;50.032;21.978;2023-06-26T14:22:45;68381.06;;;30.32;36.89
37132;BME280;23035;50.032;21.978;2023-06-26T14:27:49;68481.16;;;31.26;35.82
37132;BME280;23035;50.032;21.978;2023-06-26T14:32:55;68559.59;;;32.04;34.22
37132;BME280;23035;50.032;21.978;2023-06-26T14:37:59;68412.06;;;30.61;34.89
37132;BME280;23035;50.032;21.978;2023-06-26T14:43:03;68411.59;;;30.66;35.58
37132;BME280;23035;50.032;21.978;2023-06-26T14:48:09;68464.91;;;31.16;34.39
37132;BME280;23035;50.032;21.978;2023-06-26T14:53:14;68390.91;;;30.44;35.66
37132;BME280;23035;50.032;21.978;2023-06-26T14:58:19;68368.06;;;30.22;35.32
37132;BME280;23035;50.032;21.978;2023-06-26T15:03:25;68360.47;;;30.18;35.84
37132;BME280;23035;50.032;21.978;2023-06-26T15:08:31;68449.09;;;30.98;35.32
37132;BME280;23035;50.032;21.978;2023-06-26T15:13:36;68484.00;;;31.36;33.82
37132;BME280;23035;50.032;21.978;2023-06-26T15:18:43;68434.44;;;30.87;34.22
37132;BME280;23035;50.032;21.978;2023-06-26T15:23:57;68381.66;;;30.35;34.92
37132;BME280;23035;50.032;21.978;2023-06-26T15:29:07;68301.28;;;29.65;34.86
37132;BME280;23035;50.032;21.978;2023-06-26T15:34:12;68296.28;;;29.53;35.95
37132;BME280;23035;50.032;21.978;2023-06-26T15:39:17;68452.34;;;30.99;33.58
37132;BME280;23035;50.032;21.978;2023-06-26T15:44:21;68209.31;;;28.71;36.12
37132;BME280;23035;50.032;21.978;2023-06-26T15:49:32;68150.66;;;28.19;37.47
37132;BME280;23035;50.032;21.978;2023-06-26T15:54:38;68000.84;;;26.78;39.08
37132;BME280;23035;50.032;21.978;2023-06-26T15:59:43;67916.59;;;25.92;41.60
37132;BME280;23035;50.032;21.978;2023-06-26T16:04:48;67843.03;;;25.30;43.81
37132;BME280;23035;50.032;21.978;2023-06-26T16:09:53;67957.47;;;26.38;43.58
37132;BME280;23035;50.032;21.978;2023-06-26T16:14:57;67851.69;;;25.38;42.94
37132;BME280;23035;50.032;21.978;2023-06-26T16:20:03;67872.75;;;25.56;44.11
37132;BME280;23035;50.032;21.978;2023-06-26T16:25:08;67876.03;;;25.59;43.67
37132;BME280;23035;50.032;21.978;2023-06-26T16:30:13;67904.28;;;25.88;44.15
37132;BME280;23035;50.032;21.978;2023-06-26T16:35:20;67859.81;;;25.46;43.98
37132;BME280;23035;50.032;21.978;2023-06-26T16:40:25;67869.03;;;25.55;45.73
37132;BME280;23035;50.032;21.978;2023-06-26T16:45:29;67815.31;;;25.02;46.75
37132;BME280;23035;50.032;21.978;2023-06-26T16:50:35;67781.09;;;24.67;48.52
37132;BME280;23035;50.032;21.978;2023-06-26T16:55:40;67735.06;;;24.24;49.71
37132;BME280;23035;50.032;21.978;2023-06-26T17:00:44;67805.06;;;24.95;49.04
37132;BME280;23035;50.032;21.978;2023-06-26T17:05:50;67736.13;;;24.25;51.40
37132;BME280;23035;50.032;21.978;2023-06-26T17:10:54;67740.00;;;24.31;51.74
37132;BME280;23035;50.032;21.978;2023-06-26T17:15:58;67787.13;;;24.75;51.33
37132;BME280;23035;50.032;21.978;2023-06-26T17:21:04;67751.88;;;24.40;50.99
37132;BME280;23035;50.032;21.978;2023-06-26T17:26:08;67763.25;;;24.50;53.38
37132;BME280;23035;50.032;21.978;2023-06-26T17:31:14;67701.56;;;23.97;55.34
37132;BME280;23035;50.032;21.978;2023-06-26T17:36:22;67652.75;;;23.49;58.30
37132;BME280;23035;50.032;21.978;2023-06-26T17:41:26;67673.84;;;23.66;58.81
37132;BME280;23035;50.032;21.978;2023-06-26T17:46:31;67678.28;;;23.75;58.40
37132;BME280;23035;50.032;21.978;2023-06-26T17:51:36;67672.22;;;23.65;59.13
37132;BME280;23035;50.032;21.978;2023-06-26T17:56:41;67665.25;;;23.61;61.31
37132;BME280;23035;50.032;21.978;2023-06-26T18:01:45;67610.00;;;23.09;62.65
37132;BME280;23035;50.032;21.978;2023-06-26T18:06:51;67577.53;;;22.78;67.31
37132;BME280;23035;50.032;21.978;2023-06-26T18:11:55;67568.22;;;22.65;68.85
37132;BME280;23035;50.032;21.978;2023-06-26T18:16:59;67578.59;;;22.79;68.26
37132;BME280;23035;50.032;21.978;2023-06-26T18:22:05;67540.13;;;22.41;70.26
37132;BME280;23035;50.032;21.978;2023-06-26T18:27:10;67504.47;;;22.10;74.96
37132;BME280;23035;50.032;21.978;2023-06-26T18:32:14;67570.56;;;22.74;72.71
37132;BME280;23035;50.032;21.978;2023-06-26T18:37:22;67647.94;;;23.47;70.58
37132;BME280;23035;50.032;21.978;2023-06-26T18:42:26;67512.13;;;22.19;79.04
37132;BME280;23035;50.032;21.978;2023-06-26T18:47:30;67502.31;;;22.08;81.77
37132;BME280;23035;50.032;21.978;2023-06-26T18:52:36;67512.59;;;22.17;80.12
37132;BME280;23035;50.032;21.978;2023-06-26T18:57:40;67587.22;;;22.85;74.34
37132;BME280;23035;50.032;21.978;2023-06-26T19:02:45;67423.28;;;21.31;84.08
37132;BME280;23035;50.032;21.978;2023-06-26T19:07:51;67288.63;;;20.01;94.15
37132;BME280;23035;50.032;21.978;2023-06-26T19:12:55;67404.44;;;21.15;86.94
37132;BME280;23035;50.032;21.978;2023-06-26T19:17:59;67432.53;;;21.42;85.90
37132;BME280;23035;50.032;21.978;2023-06-26T19:23:06;67381.78;;;20.97;87.83
37132;BME280;23035;50.032;21.978;2023-06-26T19:28:10;67309.84;;;20.26;92.97
37132;BME280;23035;50.032;21.978;2023-06-26T19:33:15;67212.59;;;19.35;98.85
37132;BME280;23035;50.032;21.978;2023-06-26T19:38:20;67233.00;;;19.49;98.56
37132;BME280;23035;50.032;21.978;2023-06-26T19:43:24;67430.75;;;21.33;89.24
37132;BME280;23035;50.032;21.978;2023-06-26T19:48:29;67314.84;;;20.36;100.00
37132;BME280;23035;50.032;21.978;2023-06-26T19:53:34;67241.84;;;19.65;100.00
37132;BME280;23035;50.032;21.978;2023-06-26T19:58:40;67200.66;;;19.21;100.00
37132;BME280;23035;50.032;21.978;2023-06-26T20:03:44;67257.38;;;19.74;100.00
37132;BME280;23035;50.032;21.978;2023-06-26T20:08:50;67369.22;;;20.80;100.00
37132;BME280;23035;50.032;21.978;2023-06-26T20:13:54;67299.03;;;20.16;100.00
37132;BME280;23035;50.032;21.978;2023-06-26T20:18:58;67272.03;;;19.91;100.00
37132;BME280;23035;50.032;21.978;2023-06-26T20:24:05;67268.72;;;19.85;100.00
37132;BME280;23035;50.032;21.978;2023-06-26T20:29:09;67211.53;;;19.34;100.00
37132;BME280;23035;50.032;21.978;2023-06-26T20:34:13;67316.78;;;20.30;100.00
37132;BME280;23035;50.032;21.978;2023-06-26T20:39:19;67288.69;;;20.04;100.00
37132;BME280;23035;50.032;21.978;2023-06-26T20:44:23;67308.69;;;20.23;100.00
37132;BME280;23035;50.032;21.978;2023-06-26T20:49:28;67280.13;;;19.98;100.00
37132;BME280;23035;50.032;21.978;2023-06-26T20:54:34;67275.75;;;19.92;100.00
37132;BME280;23035;50.032;21.978;2023-06-26T20:59:39;67178.06;;;19.02;100.00
37132;BME280;23035;50.032;21.978;2023-06-26T21:04:43;67230.38;;;19.49;100.00
37132;BME280;23035;50.032;21.978;2023-06-26T21:09:48;67246.66;;;19.67;100.00
37132;BME280;23035;50.032;21.978;2023-06-26T21:14:55;67224.41;;;19.43;100.00
37132;BME280;23035;50.032;21.978;2023-06-26T21:19:59;67217.41;;;19.37;100.00
37132;BME280;23035;50.032;21.978;2023-06-26T21:25:05;67304.91;;;20.19;100.00
37132;BME280;23035;50.032;21.978;2023-06-26T21:30:12;67312.53;;;20.29;100.00
37132;BME280;23035;50.032;21.978;2023-06-26T21:35:16;67239.63;;;19.60;100.00
37132;BME280;23035;50.032;21.978;2023-06-26T21:40:43;67138.59;;;18.62;100.00
37132;BME280;23035;50.032;21.978;2023-06-26T21:45:48;67214.84;;;19.39;100.00
37132;BME280;23035;50.032;21.978;2023-06-26T21:50:52;67218.94;;;19.36;100.00
37132;BME280;23035;50.032;21.978;2023-06-26T21:55:57;67161.81;;;18.84;100.00
37132;BME280;23035;50.032;21.978;2023-06-26T22:01:01;67219.09;;;19.41;100.00
37132;BME280;23035;50.032;21.978;2023-06-26T22:06:06;67194.28;;;19.17;100.00
37132;BME280;23035;50.032;21.978;2023-06-26T22:11:11;67163.91;;;18.84;100.00
37132;BME280;23035;50.032;21.978;2023-06-26T22:16:15;67248.13;;;19.63;100.00
37132;BME280;23035;50.032;21.978;2023-06-26T22:21:19;67173.75;;;18.98;100.00
37132;BME280;23035;50.032;21.978;2023-06-26T22:26:25;67048.56;;;17.80;100.00
37132;BME280;23035;50.032;21.978;2023-06-26T22:31:28;67032.78;;;17.60;100.00
37132;BME280;23035;50.032;21.978;2023-06-26T22:36:33;67079.38;;;18.12;100.00
37132;BME280;23035;50.032;21.978;2023-06-26T22:41:38;67052.81;;;17.82;100.00
37132;BME280;23035;50.032;21.978;2023-06-26T22:46:42;67125.16;;;18.52;100.00
37132;BME280;23035;50.032;21.978;2023-06-26T22:51:46;67225.03;;;19.46;100.00
37132;BME280;23035;50.032;21.978;2023-06-26T22:56:52;67121.78;;;18.44;100.00
37132;BME280;23035;50.032;21.978;2023-06-26T23:01:58;67076.59;;;18.06;100.00
37132;BME280;23035;50.032;21.978;2023-06-26T23:07:02;67162.97;;;18.88;100.00
37132;BME280;23035;50.032;21.978;2023-06-26T23:12:08;67181.78;;;19.03;100.00
37132;BME280;23035;50.032;21.978;2023-06-26T23:17:12;67151.16;;;18.79;100.00
37132;BME280;23035;50.032;21.978;2023-06-26T23:22:17;67075.53;;;18.05;100.00
37132;BME280;23035;50.032;21.978;2023-06-26T23:27:24;67059.81;;;17.88;100.00
37132;BME280;23035;50.032;21.978;2023-06-26T23:32:28;66995.09;;;17.27;100.00
37132;BME280;23035;50.032;21.978;2023-06-26T23:37:33;67135.34;;;18.59;100.00
37132;BME280;23035;50.032;21.978;2023-06-26T23:42:40;67091.72;;;18.21;100.00
37132;BME280;23035;50.032;21.978;2023-06-26T23:47:44;67081.53;;;18.14;100.00
37132;BME280;23035;50.032;21.978;2023-06-26T23:52:50;67022.66;;;17.56;100.00
37132;BME280;23035;50.032;21.978;2023-06-26T23:57:55;67010.19;;;17.41;100.00
